Time;durP1;ratioP1;P1;durP2;ratioP2;P2;SDS_P1;SDS_P2;PMS_P1;PMS_P2;Temp;Humidity;BMP_temperature;BMP_pressure;BME280_temperature;BME280_humidity;BME280_pressure;Samples;Min_cycle;Max_cycle;Signal;HPM_P1;HPM_P2
2022/04/25 00:00:26;;;;;;;0.10;0.10;;;8.00;99.90;;;;;;5088325;28;20032;-80
2022/04/25 00:02:52;;;;;;;0.10;0.10;;;8.10;99.90;;;;;;5072952;28;20046;-80
2022/04/25 00:05:19;;;;;;;0.10;0.10;;;8.20;99.90;;;;;;5072155;28;20048;-80
2022/04/25 00:07:46;;;;;;;0.10;0.10;;;8.00;99.90;;;;;;5072879;28;20102;-80
2022/04/25 00:10:13;;;;;;;0.10;0.10;;;8.00;99.90;;;;;;5071929;28;20809;-81
2022/04/25 00:12:40;;;;;;;0.10;0.10;;;8.00;99.90;;;;;;5072300;28;20032;-80
2022/04/25 00:15:07;;;;;;;0.10;0.10;;;7.90;99.90;;;;;;5089069;28;20055;-80
2022/04/25 00:17:34;;;;;;;0.10;0.10;;;7.90;99.90;;;;;;5072459;28;20036;-80
2022/04/25 00:20:01;;;;;;;0.10;0.10;;;7.90;99.90;;;;;;5072759;28;20043;-80
2022/04/25 00:22:27;;;;;;;0.20;0.20;;;7.90;99.90;;;;;;5072626;28;20063;-80
2022/04/25 00:24:54;;;;;;;0.10;0.10;;;7.90;99.90;;;;;;5109242;28;20486;-80
2022/04/25 00:27:22;;;;;;;0.13;0.13;;;7.90;99.90;;;;;;5092342;28;20129;-81
2022/04/25 00:29:48;;;;;;;0.10;0.10;;;7.90;99.90;;;;;;5092582;28;20489;-80
2022/04/25 00:32:15;;;;;;;0.10;0.10;;;7.90;99.90;;;;;;5092527;28;20033;-80
2022/04/25 00:34:41;;;;;;;0.10;0.10;;;7.80;99.90;;;;;;5092699;28;20145;-80
2022/04/25 00:37:08;;;;;;;0.10;0.10;;;7.80;99.90;;;;;;5092815;28;20052;-80
2022/04/25 00:39:35;;;;;;;0.10;0.10;;;7.70;99.90;;;;;;5075697;28;20095;-80
2022/04/25 00:42:02;;;;;;;0.20;0.20;;;7.70;99.90;;;;;;5076099;28;20111;-80
2022/04/25 00:44:28;;;;;;;0.10;0.10;;;7.60;99.90;;;;;;5075244;28;20519;-80
2022/04/25 00:46:56;;;;;;;0.10;0.10;;;7.60;99.90;;;;;;5092497;28;20084;-80
2022/04/25 00:49:23;;;;;;;0.17;0.17;;;7.70;99.90;;;;;;5075755;28;20036;-80
2022/04/25 00:51:51;;;;;;;0.20;0.20;;;7.70;99.90;;;;;;5072316;28;20037;-80
2022/04/25 00:54:20;;;;;;;0.20;0.20;;;7.70;99.90;;;;;;5055719;28;20474;-80
2022/04/25 00:56:49;;;;;;;0.10;0.10;;;7.70;99.90;;;;;;5072572;28;20045;-80
2022/04/25 00:59:18;;;;;;;0.20;0.20;;;7.70;99.90;;;;;;5072249;28;20047;-80
2022/04/25 01:01:45;;;;;;;0.10;0.10;;;7.70;99.90;;;;;;5055892;28;20041;-80
2022/04/25 01:04:12;;;;;;;0.10;0.10;;;7.70;99.90;;;;;;5102155;28;20044;-80
2022/04/25 01:06:39;;;;;;;0.10;0.10;;;7.70;99.90;;;;;;5088349;28;20044;-81
2022/04/25 01:09:06;;;;;;;0.10;0.10;;;7.70;99.90;;;;;;5088658;28;20090;-80
2022/04/25 01:11:33;;;;;;;0.10;0.10;;;7.70;99.90;;;;;;5088078;28;20063;-80
2022/04/25 01:14:13;;;;;;;0.20;0.20;;;7.70;99.90;;;;;;5071675;28;20079;-80
2022/04/25 01:16:41;;;;;;;0.30;0.30;;;7.70;99.90;;;;;;5088158;28;20041;-80
2022/04/25 01:19:08;;;;;;;0.20;0.20;;;7.70;99.90;;;;;;5071590;28;20037;-80
2022/04/25 01:21:41;;;;;;;0.10;0.10;;;7.80;99.90;;;;;;5087998;28;20074;-80
2022/04/25 01:29:42;;;;;;;0.10;0.10;;;7.80;99.90;;;;;;5074194;28;20090;-79
2022/04/25 01:32:09;;;;;;;0.10;0.10;;;7.80;99.90;;;;;;5088346;28;20044;-80
2022/04/25 01:34:37;;;;;;;0.10;0.10;;;7.80;99.90;;;;;;5088002;28;20410;-80
2022/04/25 01:37:06;;;;;;;0.10;0.10;;;7.90;99.90;;;;;;5071492;28;20048;-80
2022/04/25 01:39:41;;;;;;;0.17;0.17;;;7.90;99.90;;;;;;5087563;28;20513;-80
2022/04/25 01:42:08;;;;;;;0.20;0.20;;;7.80;99.90;;;;;;5088439;28;20140;-80
2022/04/25 01:44:39;;;;;;;0.10;0.10;;;7.80;99.90;;;;;;5070738;28;20113;-80
2022/04/25 01:47:07;;;;;;;0.10;0.10;;;7.80;99.90;;;;;;5087903;28;20048;-80
2022/04/25 01:49:35;;;;;;;0.10;0.10;;;7.70;99.90;;;;;;5070920;28;20044;-80
2022/04/25 01:52:04;;;;;;;0.10;0.10;;;7.70;99.90;;;;;;5071154;28;20119;-81
2022/04/25 01:54:32;;;;;;;0.10;0.10;;;7.80;99.90;;;;;;5107047;28;20045;-80
2022/04/25 01:57:00;;;;;;;0.10;0.10;;;7.90;99.90;;;;;;5074586;28;20036;-80
2022/04/25 01:59:28;;;;;;;0.10;0.10;;;7.70;99.90;;;;;;5091077;28;20145;-80
2022/04/25 02:01:55;;;;;;;0.10;0.10;;;7.70;99.90;;;;;;5090644;28;20140;-80
2022/04/25 02:04:22;;;;;;;0.20;0.20;;;7.70;99.90;;;;;;5074218;28;20080;-80
2022/04/25 02:06:49;;;;;;;0.20;0.20;;;7.60;99.90;;;;;;5090396;28;20111;-81
2022/04/25 02:09:17;;;;;;;0.10;0.10;;;7.60;99.90;;;;;;5074368;28;20040;-80
2022/04/25 02:11:44;;;;;;;0.20;0.20;;;7.60;99.90;;;;;;5090729;28;20036;-80
2022/04/25 02:14:10;;;;;;;0.10;0.10;;;7.70;99.90;;;;;;5074256;28;20037;-80
2022/04/25 02:16:37;;;;;;;0.10;0.10;;;7.60;99.90;;;;;;5090417;28;20048;-80
2022/04/25 02:19:04;;;;;;;0.10;0.10;;;7.70;99.90;;;;;;5091061;28;20127;-80
2022/04/25 02:21:31;;;;;;;0.10;0.10;;;7.50;99.90;;;;;;5073601;28;20037;-80
2022/04/25 02:23:58;;;;;;;0.10;0.10;;;7.60;99.90;;;;;;5107201;28;20113;-80
2022/04/25 02:26:25;;;;;;;0.10;0.10;;;7.50;99.90;;;;;;5074190;28;20128;-80
2022/04/25 02:28:54;;;;;;;0.10;0.10;;;7.80;99.90;;;;;;5082949;28;20150;-80
2022/04/25 02:31:22;;;;;;;0.20;0.20;;;7.50;99.90;;;;;;5068596;28;20036;-80
2022/04/25 02:33:50;;;;;;;0.20;0.20;;;7.50;99.90;;;;;;5089061;28;20045;-80
2022/04/25 02:36:17;;;;;;;0.35;0.35;;;7.60;99.90;;;;;;5070988;28;20053;-80
2022/04/25 02:38:44;;;;;;;0.10;0.10;;;7.50;99.90;;;;;;5053540;28;20417;-80
2022/04/25 02:41:11;;;;;;;0.10;0.10;;;7.50;99.90;;;;;;5086724;28;20047;-80
2022/04/25 02:43:40;;;;;;;0.10;0.10;;;7.50;99.90;;;;;;5053849;28;20041;-81
2022/04/25 02:46:09;;;;;;;0.10;0.10;;;7.40;99.90;;;;;;5069649;28;20053;-80
2022/04/25 02:48:37;;;;;;;0.20;0.20;;;7.40;99.90;;;;;;5086649;28;20037;-80
2022/04/25 02:51:06;;;;;;;0.10;0.10;;;7.40;99.90;;;;;;5086554;28;20044;-80
2022/04/25 02:53:34;;;;;;;0.20;0.20;;;7.40;99.90;;;;;;5070004;28;20052;-80
2022/04/25 02:56:02;;;;;;;0.15;0.15;;;7.40;99.90;;;;;;5069796;28;20498;-80
2022/04/25 02:58:30;;;;;;;0.10;0.10;;;7.30;99.90;;;;;;5086189;28;20520;-81
2022/04/25 03:00:57;;;;;;;0.10;0.10;;;7.40;99.90;;;;;;5103451;28;20036;-80
2022/04/25 03:03:25;;;;;;;0.10;0.10;;;7.30;99.90;;;;;;5089786;28;20046;-80
2022/04/25 03:05:53;;;;;;;0.10;0.10;;;7.40;99.90;;;;;;5089566;28;20058;-80
2022/04/25 03:08:22;;;;;;;0.10;0.10;;;7.40;99.90;;;;;;5089627;28;20043;-80
2022/04/25 03:10:51;;;;;;;0.20;0.20;;;7.40;99.90;;;;;;5089398;28;20075;-80
2022/04/25 03:13:19;;;;;;;0.10;0.10;;;7.40;99.90;;;;;;5106363;28;20463;-80
2022/04/25 03:15:47;;;;;;;0.10;0.10;;;7.40;99.90;;;;;;5089675;28;20127;-80
2022/04/25 03:18:18;;;;;;;0.10;0.10;;;7.60;99.90;;;;;;5089473;28;20044;-80
2022/04/25 03:20:48;;;;;;;0.10;0.10;;;7.40;99.90;;;;;;5089621;28;20102;-80
2022/04/25 03:23:20;;;;;;;0.13;0.13;;;7.40;99.90;;;;;;5089889;28;20039;-80
2022/04/25 03:25:47;;;;;;;0.43;0.22;;;7.30;99.90;;;;;;5073046;28;20102;-81
2022/04/25 03:28:15;;;;;;;0.10;0.10;;;7.40;99.90;;;;;;5072828;28;20087;-80
2022/04/25 03:30:42;;;;;;;0.13;0.13;;;7.40;99.90;;;;;;5089332;28;20123;-80
2022/04/25 03:33:13;;;;;;;0.10;0.10;;;7.40;99.90;;;;;;5073111;28;20081;-80
2022/04/25 03:35:40;;;;;;;1.00;0.20;;;7.40;99.90;;;;;;5089170;28;20496;-80
2022/04/25 03:38:08;;;;;;;0.10;0.10;;;7.40;99.90;;;;;;5072999;28;20124;-80
2022/04/25 03:40:36;;;;;;;0.10;0.10;;;7.40;99.90;;;;;;5073096;28;20154;-80
2022/04/25 03:43:07;;;;;;;0.10;0.10;;;7.40;99.90;;;;;;5072581;28;20397;-80
2022/04/25 03:45:34;;;;;;;0.10;0.10;;;7.40;99.90;;;;;;5088762;28;20098;-81
2022/04/25 03:48:02;;;;;;;0.10;0.10;;;7.40;99.90;;;;;;5105749;28;20405;-81
2022/04/25 03:50:31;;;;;;;0.10;0.10;;;7.40;99.90;;;;;;5089156;28;20044;-80
2022/04/25 03:53:03;;;;;;;0.10;0.10;;;7.30;99.90;;;;;;5072637;28;20045;-80
2022/04/25 03:58:15;;;;;;;0.10;0.10;;;7.40;99.90;;;;;;5093255;28;20087;-81
2022/04/25 04:00:42;;;;;;;0.10;0.10;;;7.40;99.90;;;;;;5076222;28;20045;-80
2022/04/25 04:03:10;;;;;;;0.10;0.10;;;7.40;99.90;;;;;;5093270;28;20515;-80
2022/04/25 04:05:37;;;;;;;0.10;0.10;;;7.40;99.90;;;;;;5077098;28;20040;-81
2022/04/25 04:08:04;;;;;;;0.10;0.10;;;7.40;99.90;;;;;;5092711;28;20044;-80
2022/04/25 04:10:31;;;;;;;0.20;0.20;;;7.40;99.90;;;;;;5060009;28;20075;-81
2022/04/25 04:12:59;;;;;;;0.10;0.10;;;7.40;99.90;;;;;;5092002;28;20055;-80
2022/04/25 04:15:26;;;;;;;0.10;0.10;;;7.40;99.90;;;;;;5093236;28;20047;-80
2022/04/25 04:17:53;;;;;;;0.20;0.20;;;7.40;99.90;;;;;;5075930;28;20509;-80
2022/04/25 04:20:19;;;;;;;0.10;0.10;;;7.90;99.90;;;;;;5076136;28;20046;-80
2022/04/25 04:22:46;;;;;;;0.20;0.20;;;7.40;99.90;;;;;;5092572;28;20093;-80
2022/04/25 04:25:13;;;;;;;0.20;0.20;;;7.50;99.90;;;;;;5075942;28;20032;-80
2022/04/25 04:27:42;;;;;;;0.17;0.17;;;7.40;99.90;;;;;;5092993;28;20036;-80
2022/04/25 04:30:13;;;;;;;0.10;0.10;;;7.50;99.90;;;;;;5092395;28;20036;-80
2022/04/25 04:32:41;;;;;;;0.13;0.13;;;7.50;99.90;;;;;;5076464;28;20044;-80
2022/04/25 04:35:10;;;;;;;0.10;0.10;;;7.40;99.90;;;;;;5092272;28;20071;-80
2022/04/25 04:37:38;;;;;;;0.20;0.20;;;7.50;99.90;;;;;;5092196;28;20044;-80
2022/04/25 04:42:52;;;;;;;0.13;0.13;;;7.40;99.90;;;;;;5108776;28;20572;-80
2022/04/25 04:45:19;;;;;;;0.10;0.10;;;7.50;99.90;;;;;;5092042;28;20136;-80
2022/04/25 04:47:46;;;;;;;0.10;0.10;;;7.80;99.90;;;;;;5075693;28;20040;-80
2022/04/25 04:50:17;;;;;;;0.10;0.10;;;7.50;99.90;;;;;;5075919;28;20066;-80
2022/04/25 04:52:48;;;;;;;0.10;0.10;;;7.50;99.90;;;;;;5092265;28;20193;-80
2022/04/25 04:55:16;;;;;;;0.20;0.20;;;7.50;99.90;;;;;;5092928;28;20044;-80
2022/04/25 04:57:43;;;;;;;0.10;0.10;;;7.50;99.90;;;;;;5092175;28;20044;-80
2022/04/25 05:00:15;;;;;;;0.10;0.10;;;7.50;99.90;;;;;;5108679;28;20036;-80
2022/04/25 05:02:43;;;;;;;0.10;0.10;;;7.50;99.90;;;;;;5108558;28;20052;-80
2022/04/25 05:05:12;;;;;;;0.10;0.10;;;7.60;99.90;;;;;;5091662;28;20102;-80
2022/04/25 05:07:39;;;;;;;0.10;0.10;;;7.40;99.90;;;;;;5091976;28;20050;-80
2022/04/25 05:10:07;;;;;;;0.13;0.13;;;7.40;99.90;;;;;;5091226;28;20098;-80
2022/04/25 05:12:43;;;;;;;0.20;0.20;;;7.40;99.90;;;;;;5075850;28;20040;-80
2022/04/25 05:15:10;;;;;;;0.10;0.10;;;7.40;99.90;;;;;;5108599;28;20055;-80
2022/04/25 05:17:37;;;;;;;0.10;0.10;;;7.40;99.90;;;;;;5075292;28;20409;-80
2022/04/25 05:20:04;;;;;;;0.10;0.10;;;7.40;99.90;;;;;;5074983;28;20040;-80
2022/04/25 05:22:31;;;;;;;0.10;0.10;;;7.40;99.90;;;;;;5092126;28;20047;-81
2022/04/25 05:24:59;;;;;;;0.13;0.13;;;7.40;99.90;;;;;;5091579;28;20386;-80
2022/04/25 05:27:25;;;;;;;0.10;0.10;;;7.40;99.90;;;;;;5108357;28;20032;-80
2022/04/25 05:29:52;;;;;;;0.10;0.10;;;7.50;99.90;;;;;;5074830;28;20047;-80
2022/04/25 05:32:19;;;;;;;0.20;0.20;;;7.60;99.90;;;;;;5091620;28;20044;-80
2022/04/25 05:34:45;;;;;;;0.10;0.10;;;7.50;99.90;;;;;;5074838;28;20045;-80
2022/04/25 05:37:12;;;;;;;0.20;0.20;;;7.50;99.90;;;;;;5108521;28;20076;-80
2022/04/25 05:39:38;;;;;;;0.10;0.10;;;7.50;99.90;;;;;;5075188;28;20517;-80
2022/04/25 05:42:07;;;;;;;0.20;0.20;;;7.50;99.90;;;;;;5074788;28;20036;-80
2022/04/25 05:44:33;;;;;;;0.10;0.10;;;7.60;99.90;;;;;;5074208;28;20825;-80
2022/04/25 05:47:00;;;;;;;0.10;0.10;;;7.60;99.90;;;;;;5057903;28;20097;-80
2022/04/25 05:52:13;;;;;;;0.10;0.10;;;7.60;99.90;;;;;;5079376;28;20071;-81
2022/04/25 05:54:39;;;;;;;0.20;0.20;;;7.60;99.90;;;;;;5060764;28;20044;-80
2022/04/25 05:57:06;;;;;;;0.17;0.17;;;7.60;99.90;;;;;;5058264;28;20036;-80
2022/04/25 05:59:33;;;;;;;0.20;0.20;;;7.60;99.90;;;;;;5090815;28;20428;-81
2022/04/25 06:01:59;;;;;;;0.20;0.20;;;7.50;99.90;;;;;;5057286;28;20051;-80
2022/04/25 06:04:26;;;;;;;0.10;0.10;;;7.50;99.90;;;;;;5090971;28;20036;-80
2022/04/25 06:06:53;;;;;;;0.10;0.10;;;7.50;99.90;;;;;;5074161;28;20063;-80
2022/04/25 06:09:20;;;;;;;0.10;0.10;;;7.50;99.90;;;;;;5073711;28;20097;-80
2022/04/25 06:11:49;;;;;;;0.10;0.10;;;7.50;99.90;;;;;;5070924;28;20029;-79
2022/04/25 06:14:16;;;;;;;0.10;0.10;;;7.40;99.90;;;;;;5070296;28;20489;-79
2022/04/25 06:16:42;;;;;;;0.10;0.10;;;7.50;99.90;;;;;;5070582;28;20047;-82
2022/04/25 06:19:10;;;;;;;0.10;0.10;;;7.50;99.90;;;;;;5053800;28;20044;-80
2022/04/25 06:21:36;;;;;;;0.10;0.10;;;7.50;99.90;;;;;;5062911;28;20040;-80
2022/04/25 06:24:04;;;;;;;0.10;0.10;;;7.50;99.90;;;;;;5089874;28;20405;-82
2022/04/25 06:26:30;;;;;;;0.10;0.10;;;7.60;99.90;;;;;;5074101;28;20032;-82
2022/04/25 06:28:57;;;;;;;0.10;0.10;;;7.80;99.90;;;;;;5073534;28;20036;-80
2022/04/25 06:31:24;;;;;;;0.10;0.10;;;7.60;99.90;;;;;;5084808;28;20119;-80
2022/04/25 06:33:51;;;;;;;0.10;0.10;;;7.60;99.90;;;;;;5092250;28;20040;-82
2022/04/25 06:36:17;;;;;;;0.20;0.20;;;7.70;99.90;;;;;;5062221;28;20059;-80
2022/04/25 06:38:44;;;;;;;0.10;0.10;;;7.70;99.90;;;;;;5096382;28;20497;-80
2022/04/25 06:41:12;;;;;;;0.10;0.10;;;7.70;99.90;;;;;;5071750;28;20044;-81
2022/04/25 06:43:38;;;;;;;0.20;0.20;;;7.60;99.90;;;;;;5066457;28;20044;-80
2022/04/25 06:46:05;;;;;;;0.10;0.10;;;7.60;99.90;;;;;;5089511;28;20053;-80
2022/04/25 06:48:32;;;;;;;0.10;0.10;;;7.60;99.90;;;;;;5057479;28;20052;-82
2022/04/25 06:51:00;;;;;;;0.10;0.10;;;7.60;99.90;;;;;;5089981;28;20119;-82
2022/04/25 06:53:28;;;;;;;0.10;0.10;;;7.50;99.90;;;;;;5089678;28;20093;-81
2022/04/25 06:55:54;;;;;;;0.10;0.10;;;7.60;99.90;;;;;;5073776;28;20041;-81
2022/04/25 06:58:21;;;;;;;0.10;0.10;;;7.60;99.90;;;;;;5066042;28;20033;-79
2022/04/25 07:00:48;;;;;;;0.10;0.10;;;7.70;99.90;;;;;;5096435;28;20108;-82
2022/04/25 07:03:15;;;;;;;0.10;0.10;;;7.50;99.90;;;;;;5093635;28;20043;-80
2022/04/25 07:05:42;;;;;;;0.20;0.20;;;7.60;99.90;;;;;;5071145;28;20036;-79
2022/04/25 07:08:09;;;;;;;0.10;0.10;;;7.50;99.90;;;;;;5056171;28;20064;-79
2022/04/25 07:10:36;;;;;;;0.10;0.10;;;7.50;99.90;;;;;;5072703;28;20450;-79
2022/04/25 07:13:12;;;;;;;0.20;0.20;;;7.50;99.90;;;;;;5072846;28;20409;-81
2022/04/25 07:15:38;;;;;;;0.17;0.17;;;7.40;99.90;;;;;;5090910;28;20044;-81
2022/04/25 07:18:05;;;;;;;0.10;0.10;;;7.60;99.90;;;;;;5072106;28;20040;-83
2022/04/25 07:20:32;;;;;;;0.20;0.20;;;7.50;99.90;;;;;;5056854;28;20123;-81
2022/04/25 07:31:15;;;;;;;0.20;0.20;;;7.50;99.90;;;;;;5106057;28;20056;-81
2022/04/25 07:33:43;;;;;;;0.20;0.20;;;7.50;99.90;;;;;;5072519;28;20358;-80
2022/04/25 07:36:10;;;;;;;0.10;0.10;;;7.50;99.90;;;;;;5068966;28;20699;-81
2022/04/25 07:38:39;;;;;;;0.10;0.10;;;7.40;99.90;;;;;;5102443;28;20090;-81
2022/04/25 07:41:07;;;;;;;0.43;0.43;;;7.50;99.90;;;;;;5089126;28;20032;-80
2022/04/25 07:43:34;;;;;;;0.10;0.10;;;7.50;99.90;;;;;;5088234;28;20529;-82
2022/04/25 07:46:02;;;;;;;0.10;0.10;;;7.50;99.90;;;;;;5088112;28;20056;-81
2022/04/25 07:48:28;;;;;;;0.20;0.20;;;7.50;99.90;;;;;;5071981;28;20078;-81
2022/04/25 07:50:55;;;;;;;0.10;0.10;;;7.80;99.90;;;;;;5072632;28;20456;-82
2022/04/25 07:53:22;;;;;;;0.10;0.10;;;7.50;99.90;;;;;;5055347;28;20421;-82
2022/04/25 07:55:48;;;;;;;0.10;0.10;;;7.50;99.90;;;;;;5088730;28;20047;-79
2022/04/25 07:58:15;;;;;;;0.10;0.10;;;7.50;99.90;;;;;;5088711;28;20397;-80
2022/04/25 08:00:42;;;;;;;0.10;0.10;;;7.60;99.90;;;;;;5055678;28;20171;-80
2022/04/25 08:03:09;;;;;;;0.10;0.10;;;7.60;99.90;;;;;;5053367;28;20028;-79
2022/04/25 08:05:36;;;;;;;0.10;0.10;;;7.60;99.90;;;;;;5087143;28;20041;-81
2022/04/25 08:08:02;;;;;;;0.32;0.20;;;7.60;99.90;;;;;;5089082;28;20119;-80
2022/04/25 08:10:29;;;;;;;0.10;0.10;;;7.70;99.90;;;;;;5071237;28;20103;-80
2022/04/25 08:18:26;;;;;;;0.10;0.10;;;7.70;99.90;;;;;;5076721;28;20139;-81
2022/04/25 08:20:53;;;;;;;0.10;0.10;;;7.70;99.90;;;;;;5088075;28;20155;-82
2022/04/25 08:23:21;;;;;;;0.30;0.30;;;7.80;99.90;;;;;;5059070;28;20045;-82
2022/04/25 08:25:47;;;;;;;0.10;0.10;;;7.80;99.90;;;;;;5069575;28;20041;-80
2022/04/25 08:28:14;;;;;;;0.15;0.15;;;7.80;99.90;;;;;;5071697;28;20046;-81
2022/04/25 08:30:41;;;;;;;0.10;0.10;;;7.90;99.90;;;;;;5105134;28;20032;-79
2022/04/25 08:33:08;;;;;;;0.10;0.10;;;8.00;99.90;;;;;;5071547;28;20681;-80
2022/04/25 08:35:35;;;;;;;0.10;0.10;;;8.10;99.90;;;;;;5083374;28;20041;-81
2022/04/25 08:38:01;;;;;;;0.10;0.10;;;8.10;99.90;;;;;;5085918;28;20128;-81
2022/04/25 08:40:28;;;;;;;0.10;0.10;;;8.20;99.90;;;;;;5097004;28;20051;-79
2022/04/25 08:42:57;;;;;;;0.10;0.10;;;8.20;99.90;;;;;;5088413;28;20044;-80
2022/04/25 08:45:24;;;;;;;0.10;0.10;;;8.30;99.90;;;;;;5090362;28;20150;-81
2022/04/25 08:47:58;;;;;;;0.20;0.20;;;8.30;99.90;;;;;;5091237;28;20065;-78
2022/04/25 08:50:28;;;;;;;0.13;0.13;;;8.40;99.90;;;;;;5124837;28;20519;-81
2022/04/25 08:52:57;;;;;;;0.10;0.10;;;8.50;99.90;;;;;;5071630;28;20087;-81
2022/04/25 08:55:26;;;;;;;0.10;0.10;;;8.60;99.90;;;;;;5080938;28;20121;-79
2022/04/25 08:57:54;;;;;;;0.10;0.10;;;8.80;99.90;;;;;;5091476;28;20075;-79
2022/04/25 09:00:21;;;;;;;0.10;0.10;;;8.90;99.90;;;;;;5107764;28;20040;-79
2022/04/25 09:02:49;;;;;;;0.10;0.10;;;9.10;99.90;;;;;;5074486;28;20098;-79
2022/04/25 09:05:16;;;;;;;0.10;0.10;;;9.20;99.90;;;;;;5074152;28;20079;-80
2022/04/25 09:07:43;;;;;;;0.10;0.10;;;9.30;99.90;;;;;;5091418;28;20033;-79
2022/04/25 09:10:13;;;;;;;0.10;0.10;;;9.40;99.90;;;;;;5090918;28;20036;-78
2022/04/25 09:12:42;;;;;;;0.10;0.10;;;9.50;99.90;;;;;;5089344;28;20139;-79
2022/04/25 09:15:09;;;;;;;0.10;0.10;;;9.60;99.90;;;;;;5059625;28;20123;-78
2022/04/25 09:17:39;;;;;;;0.10;0.10;;;9.50;99.90;;;;;;5076403;28;20040;-79
2022/04/25 09:20:08;;;;;;;0.08;0.08;;;9.60;99.90;;;;;;5090671;28;20045;-78
2022/04/25 09:22:37;;;;;;;0.10;0.10;;;9.60;99.90;;;;;;5091151;28;20083;-81
2022/04/25 09:25:16;;;;;;;0.20;0.20;;;9.70;99.90;;;;;;5107158;28;20059;-80
2022/04/25 09:27:43;;;;;;;0.10;0.10;;;9.70;99.90;;;;;;5092344;28;20560;-80
2022/04/25 09:30:22;;;;;;;0.10;0.10;;;9.80;99.90;;;;;;5074091;28;20044;-82
2022/04/25 09:32:51;;;;;;;0.10;0.10;;;9.80;99.90;;;;;;5091388;28;20182;-80
2022/04/25 09:35:38;;;;;;;0.10;0.10;;;9.80;99.90;;;;;;5090662;28;20118;-81
2022/04/25 09:38:04;;;;;;;;;;;9.80;99.90;;;;;;5091495;28;20405;-82
2022/04/25 09:40:33;;;;;;;0.10;0.10;;;9.80;99.90;;;;;;5090302;28;19916;-81
2022/04/25 09:43:11;;;;;;;0.10;0.10;;;9.90;99.90;;;;;;5091050;28;20078;-80
2022/04/25 09:45:42;;;;;;;0.10;0.10;;;9.90;99.90;;;;;;5074393;28;20842;-81
2022/04/25 09:48:14;;;;;;;0.30;0.30;;;9.90;99.90;;;;;;5071140;28;20053;-80
2022/04/25 09:50:40;;;;;;;0.10;0.10;;;10.10;99.90;;;;;;5090636;28;20036;-82
2022/04/25 09:53:08;;;;;;;0.10;0.10;;;10.20;99.90;;;;;;5090367;28;20451;-82
2022/04/25 09:55:37;;;;;;;0.17;0.17;;;10.30;99.90;;;;;;5090211;28;20413;-80
2022/04/25 09:58:18;;;;;;;0.10;0.10;;;10.50;99.90;;;;;;5090771;28;20066;-80
2022/04/25 10:00:46;;;;;;;0.10;0.10;;;10.50;99.90;;;;;;5073583;28;20409;-81
2022/04/25 10:03:16;;;;;;;0.10;0.10;;;10.60;99.90;;;;;;5090852;28;20097;-81
2022/04/25 10:05:45;;;;;;;0.10;0.10;;;10.60;99.90;;;;;;5107051;28;20076;-82
2022/04/25 10:08:14;;;;;;;0.10;0.10;;;10.70;99.90;;;;;;5090396;28;20032;-80
2022/04/25 10:10:48;;;;;;;0.05;0.05;;;10.80;99.90;;;;;;5073808;28;20032;-80
2022/04/25 10:13:15;;;;;;;0.10;0.10;;;10.90;99.90;;;;;;5087351;28;20044;-80
2022/04/25 10:15:44;;;;;;;0.10;0.10;;;11.00;99.90;;;;;;5086792;28;20135;-81
2022/04/25 10:18:12;;;;;;;0.10;0.10;;;10.90;99.90;;;;;;5069907;28;20072;-80
2022/04/25 10:20:40;;;;;;;0.10;0.10;;;11.00;99.90;;;;;;5086426;28;20103;-80
2022/04/25 10:23:13;;;;;;;0.10;0.10;;;11.00;99.90;;;;;;5088341;28;20078;-81
2022/04/25 10:25:49;;;;;;;0.10;0.10;;;10.90;99.90;;;;;;5081646;28;20098;-82
2022/04/25 10:28:42;;;;;;;0.10;0.10;;;11.30;99.90;;;;;;5089818;28;20042;-81
2022/04/25 10:31:23;;;;;;;0.00;0.00;;;11.50;99.90;;;;;;5087117;28;20055;-83
2022/04/25 10:33:54;;;;;;;0.10;0.10;;;11.60;99.90;;;;;;5106425;28;20114;-80
2022/04/25 10:36:39;;;;;;;0.13;0.13;;;11.60;99.90;;;;;;5106242;28;20037;-82
2022/04/25 10:39:16;;;;;;;0.10;0.10;;;11.70;99.90;;;;;;5100644;28;20040;-82
2022/04/25 10:44:42;;;;;;;0.10;0.10;;;12.00;99.90;;;;;;5093029;28;20435;-80
2022/04/25 10:47:14;;;;;;;0.10;0.10;;;12.10;99.90;;;;;;5109985;28;20056;-80
2022/04/25 10:49:42;;;;;;;0.10;0.10;;;12.40;99.90;;;;;;5100206;28;20047;-82
2022/04/25 10:52:41;;;;;;;0.10;0.10;;;12.40;99.90;;;;;;5105771;28;20041;-82
2022/04/25 10:55:23;;;;;;;0.10;0.10;;;12.50;99.90;;;;;;5092172;28;20048;-82
2022/04/25 10:58:07;;;;;;;0.00;0.00;;;12.60;99.90;;;;;;5106126;28;20123;-80
2022/04/25 11:00:37;;;;;;;0.10;0.10;;;12.70;99.90;;;;;;5105913;28;20048;-80
2022/04/25 11:03:23;;;;;;;0.20;0.20;;;12.60;99.90;;;;;;5106076;28;20086;-82
2022/04/25 11:06:00;;;;;;;0.10;0.10;;;12.80;99.90;;;;;;5106154;28;20530;-80
2022/04/25 11:08:31;;;;;;;0.08;0.08;;;12.80;99.90;;;;;;5105337;28;20093;-82
2022/04/25 11:10:59;;;;;;;0.10;0.10;;;12.80;99.90;;;;;;5105910;28;20044;-80
2022/04/25 11:13:35;;;;;;;0.00;0.00;;;12.90;99.90;;;;;;5105851;28;20076;-82
2022/04/25 11:16:21;;;;;;;0.10;0.10;;;12.90;99.90;;;;;;5088986;28;20075;-80
2022/04/25 11:19:22;;;;;;;0.00;0.00;;;12.80;99.90;;;;;;5089501;28;20037;-82
2022/04/25 11:21:55;;;;;;;0.10;0.10;;;12.90;99.90;;;;;;5086255;28;20052;-85
2022/04/25 11:24:28;;;;;;;0.10;0.10;;;12.90;99.90;;;;;;5062113;28;20569;-84
2022/04/25 11:27:00;;;;;;;0.00;0.00;;;12.90;99.90;;;;;;5069340;28;20127;-84
2022/04/25 11:29:28;;;;;;;0.17;0.17;;;12.90;99.90;;;;;;5052588;28;20084;-84
2022/04/25 11:32:24;;;;;;;0.10;0.10;;;13.00;99.90;;;;;;5069090;28;20037;-84
2022/04/25 11:34:50;;;;;;;0.10;0.10;;;13.20;99.90;;;;;;5069390;28;20049;-84
2022/04/25 11:37:22;;;;;;;0.35;0.20;;;13.20;99.90;;;;;;5052701;28;20036;-84
2022/04/25 11:39:57;;;;;;;0.00;0.00;;;13.40;99.90;;;;;;5053633;28;20128;-84
2022/04/25 11:42:30;;;;;;;0.00;0.00;;;13.50;99.90;;;;;;5079761;28;20426;-84
2022/04/25 11:44:57;;;;;;;0.00;0.00;;;13.50;99.90;;;;;;5089006;28;20037;-83
2022/04/25 11:47:25;;;;;;;0.13;0.13;;;13.60;99.90;;;;;;5088980;28;20052;-83
2022/04/25 11:49:56;;;;;;;0.00;0.00;;;13.50;99.90;;;;;;5105829;28;20515;-83
2022/04/25 11:52:24;;;;;;;0.00;0.00;;;13.70;99.90;;;;;;5088955;28;20045;-83
2022/04/25 11:54:50;;;;;;;0.00;0.00;;;13.90;99.90;;;;;;5072770;28;20082;-84
2022/04/25 11:57:17;;;;;;;0.10;0.10;;;14.10;99.90;;;;;;5072774;28;20079;-84
2022/04/25 11:59:44;;;;;;;0.00;0.00;;;14.20;99.90;;;;;;5072145;28;20076;-84
2022/04/25 12:02:11;;;;;;;0.05;0.05;;;14.30;99.90;;;;;;5072254;28;20036;-83
2022/04/25 12:04:38;;;;;;;0.00;0.00;;;14.30;99.90;;;;;;5055338;28;20036;-84
2022/04/25 12:07:06;;;;;;;0.10;0.10;;;14.20;99.90;;;;;;5056253;28;20123;-84
2022/04/25 12:18:18;;;;;;;0.10;0.10;;;14.10;99.90;;;;;;5105718;28;20044;-84
2022/04/25 12:21:02;;;;;;;0.10;0.10;;;14.10;99.90;;;;;;5092371;28;20086;-83
2022/04/25 12:23:32;;;;;;;0.00;0.00;;;14.10;99.90;;;;;;5072067;28;20057;-84
2022/04/25 12:26:06;;;;;;;0.00;0.00;;;14.10;99.90;;;;;;5072724;28;20041;-83
2022/04/25 12:28:37;;;;;;;0.00;0.00;;;14.10;99.90;;;;;;5072372;28;20134;-84
2022/04/25 12:31:04;;;;;;;0.15;0.10;;;14.00;99.90;;;;;;5072538;28;20072;-84
2022/04/25 12:33:41;;;;;;;0.08;0.08;;;14.00;99.90;;;;;;5105515;28;20103;-84
2022/04/25 12:36:20;;;;;;;0.20;0.10;;;13.90;99.90;;;;;;5089009;28;20482;-83
2022/04/25 12:38:54;;;;;;;0.00;0.00;;;13.80;99.90;;;;;;5072283;28;20040;-84
2022/04/25 12:41:23;;;;;;;0.10;0.10;;;13.60;99.90;;;;;;5081969;28;20037;-84
2022/04/25 12:43:53;;;;;;;0.00;0.00;;;13.50;99.90;;;;;;5091612;28;20052;-84
2022/04/25 12:46:57;;;;;;;0.00;0.00;;;13.40;99.90;;;;;;5075560;28;20052;-84
2022/04/25 12:49:35;;;;;;;0.00;0.00;;;13.30;99.90;;;;;;5092006;28;20048;-84
2022/04/25 12:52:06;;;;;;;0.10;0.10;;;13.20;99.90;;;;;;5075678;28;20485;-84
2022/04/25 12:54:46;;;;;;;0.00;0.00;;;13.10;99.90;;;;;;5092185;28;20050;-83
2022/04/25 12:57:18;;;;;;;0.00;0.00;;;13.00;99.90;;;;;;5092084;28;20036;-84
2022/04/25 12:59:57;;;;;;;0.10;0.10;;;13.00;99.90;;;;;;5091868;28;20124;-85
2022/04/25 13:02:32;;;;;;;0.00;0.00;;;12.90;99.90;;;;;;5091867;28;20142;-83
2022/04/25 13:05:09;;;;;;;0.00;0.00;;;12.80;99.90;;;;;;5092156;28;20051;-84
2022/04/25 13:07:48;;;;;;;0.10;0.10;;;12.80;99.90;;;;;;5108259;28;20512;-83
2022/04/25 13:10:21;;;;;;;0.03;0.03;;;12.70;99.90;;;;;;5091985;28;20037;-82
2022/04/25 13:12:56;;;;;;;0.00;0.00;;;12.70;99.90;;;;;;5075064;28;20040;-84
2022/04/25 13:15:29;;;;;;;0.10;0.10;;;12.60;99.90;;;;;;5091522;28;20102;-83
2022/04/25 13:17:56;;;;;;;0.22;0.10;;;12.60;99.90;;;;;;5108425;28;20278;-84
2022/04/25 13:20:28;;;;;;;0.00;0.00;;;12.60;99.90;;;;;;5075177;28;20047;-83
2022/04/25 13:22:55;;;;;;;0.00;0.00;;;12.60;99.90;;;;;;5091473;28;20048;-83
2022/04/25 13:25:23;;;;;;;0.10;0.10;;;12.50;99.90;;;;;;5074694;28;20424;-82
2022/04/25 13:27:53;;;;;;;0.10;0.10;;;12.50;99.90;;;;;;5074457;28;20120;-83
2022/04/25 13:30:20;;;;;;;0.10;0.10;;;12.60;99.90;;;;;;5074563;28;20499;-83
2022/04/25 13:32:50;;;;;;;0.00;0.00;;;12.60;99.90;;;;;;5074699;28;20047;-84
2022/04/25 13:35:18;;;;;;;0.00;0.00;;;12.60;99.90;;;;;;5108070;28;20048;-83
2022/04/25 13:37:45;;;;;;;0.10;0.10;;;12.70;99.90;;;;;;5090964;28;20083;-83
2022/04/25 13:40:13;;;;;;;0.08;0.08;;;12.70;99.90;;;;;;5091069;28;20629;-83
2022/04/25 13:42:41;;;;;;;0.10;0.10;;;12.70;99.90;;;;;;5057993;28;20044;-83
2022/04/25 13:45:08;;;;;;;0.10;0.10;;;12.70;99.90;;;;;;5074073;28;20182;-83